sensor_id;sensor_type;location;lat;lon;timestamp;pressure;altitude;pressure_sealevel;temperature;humidity
74960;BME280;63518;49.572;1.106;2024-03-08T00:00:34;99159.28;;;4.41;100.00
74960;BME280;63518;49.572;1.106;2024-03-08T00:03:01;99162.94;;;4.57;100.00
74960;BME280;63518;49.572;1.106;2024-03-08T00:05:29;99150.41;;;4.61;100.00
74960;BME280;63518;49.572;1.106;2024-03-08T00:07:56;99143.66;;;4.79;100.00
74960;BME280;63518;49.572;1.106;2024-03-08T00:10:23;99147.41;;;4.68;100.00
74960;BME280;63518;49.572;1.106;2024-03-08T00:12:53;99144.25;;;4.39;100.00
74960;BME280;63518;49.572;1.106;2024-03-08T00:15:21;99127.25;;;4.32;100.00
74960;BME280;63518;49.572;1.106;2024-03-08T00:17:49;99137.69;;;4.40;100.00
74960;BME280;63518;49.572;1.106;2024-03-08T00:20:17;99141.88;;;4.58;100.00
74960;BME280;63518;49.572;1.106;2024-03-08T00:22:46;99112.13;;;4.19;100.00
74960;BME280;63518;49.572;1.106;2024-03-08T00:25:13;99128.84;;;4.28;100.00
74960;BME280;63518;49.572;1.106;2024-03-08T00:27:40;99132.53;;;4.48;100.00
74960;BME280;63518;49.572;1.106;2024-03-08T00:30:10;99107.09;;;4.43;100.00
74960;BME280;63518;49.572;1.106;2024-03-08T00:32:39;99105.09;;;4.28;100.00
74960;BME280;63518;49.572;1.106;2024-03-08T00:35:06;99116.72;;;4.08;100.00
74960;BME280;63518;49.572;1.106;2024-03-08T00:37:34;99110.22;;;4.14;100.00
74960;BME280;63518;49.572;1.106;2024-03-08T00:40:01;99112.22;;;4.34;100.00
74960;BME280;63518;49.572;1.106;2024-03-08T00:42:28;99109.00;;;4.42;100.00
74960;BME280;63518;49.572;1.106;2024-03-08T00:44:54;99091.69;;;4.27;100.00
74960;BME280;63518;49.572;1.106;2024-03-08T00:47:21;99093.78;;;4.09;100.00
74960;BME280;63518;49.572;1.106;2024-03-08T00:49:48;99092.19;;;4.18;100.00
74960;BME280;63518;49.572;1.106;2024-03-08T00:52:15;99087.22;;;4.10;100.00
74960;BME280;63518;49.572;1.106;2024-03-08T00:54:41;99085.94;;;4.23;100.00
74960;BME280;63518;49.572;1.106;2024-03-08T00:57:11;99083.72;;;4.20;100.00
74960;BME280;63518;49.572;1.106;2024-03-08T00:59:38;99076.25;;;4.05;100.00
74960;BME280;63518;49.572;1.106;2024-03-08T01:02:05;99073.00;;;4.08;100.00
74960;BME280;63518;49.572;1.106;2024-03-08T01:04:32;99074.69;;;4.14;100.00
74960;BME280;63518;49.572;1.106;2024-03-08T01:07:00;99065.25;;;3.90;100.00
74960;BME280;63518;49.572;1.106;2024-03-08T01:09:27;99063.09;;;3.97;100.00
74960;BME280;63518;49.572;1.106;2024-03-08T01:11:54;99053.03;;;4.03;100.00
74960;BME280;63518;49.572;1.106;2024-03-08T01:14:22;99046.56;;;4.14;100.00
74960;BME280;63518;49.572;1.106;2024-03-08T01:16:50;99051.47;;;4.17;100.00
74960;BME280;63518;49.572;1.106;2024-03-08T01:19:17;99047.88;;;3.69;100.00
74960;BME280;63518;49.572;1.106;2024-03-08T01:21:44;99037.72;;;4.02;100.00
74960;BME280;63518;49.572;1.106;2024-03-08T01:24:10;99036.25;;;3.84;100.00
74960;BME280;63518;49.572;1.106;2024-03-08T01:26:37;99030.25;;;3.87;100.00
74960;BME280;63518;49.572;1.106;2024-03-08T01:29:05;99033.94;;;4.08;100.00
74960;BME280;63518;49.572;1.106;2024-03-08T01:31:32;99033.03;;;3.92;100.00
74960;BME280;63518;49.572;1.106;2024-03-08T01:33:59;99025.81;;;3.76;100.00
74960;BME280;63518;49.572;1.106;2024-03-08T01:36:26;99019.13;;;3.56;100.00
74960;BME280;63518;49.572;1.106;2024-03-08T01:38:52;99015.91;;;3.64;100.00
74960;BME280;63518;49.572;1.106;2024-03-08T01:41:19;99015.50;;;3.46;100.00
74960;BME280;63518;49.572;1.106;2024-03-08T01:43:46;99012.78;;;3.83;100.00
74960;BME280;63518;49.572;1.106;2024-03-08T01:46:16;99013.28;;;3.80;100.00
74960;BME280;63518;49.572;1.106;2024-03-08T01:48:44;99007.97;;;3.31;100.00
74960;BME280;63518;49.572;1.106;2024-03-08T01:51:12;98997.88;;;3.58;100.00
74960;BME280;63518;49.572;1.106;2024-03-08T01:53:42;98998.81;;;3.42;100.00
74960;BME280;63518;49.572;1.106;2024-03-08T01:56:13;98996.28;;;3.68;100.00
74960;BME280;63518;49.572;1.106;2024-03-08T01:58:41;98988.25;;;3.51;100.00
74960;BME280;63518;49.572;1.106;2024-03-08T02:01:12;98990.38;;;3.44;100.00
74960;BME280;63518;49.572;1.106;2024-03-08T02:03:42;98985.75;;;3.44;100.00
74960;BME280;63518;49.572;1.106;2024-03-08T02:06:13;98976.31;;;3.30;100.00
74960;BME280;63518;49.572;1.106;2024-03-08T02:08:44;98978.66;;;3.43;100.00
74960;BME280;63518;49.572;1.106;2024-03-08T02:11:11;98937.91;;;3.36;100.00
74960;BME280;63518;49.572;1.106;2024-03-08T02:13:39;98954.97;;;3.22;100.00
74960;BME280;63518;49.572;1.106;2024-03-08T02:16:06;98948.97;;;2.88;100.00
74960;BME280;63518;49.572;1.106;2024-03-08T02:18:35;98943.53;;;3.20;100.00
74960;BME280;63518;49.572;1.106;2024-03-08T02:21:03;98919.97;;;3.08;100.00
74960;BME280;63518;49.572;1.106;2024-03-08T02:23:31;98932.34;;;3.21;100.00
74960;BME280;63518;49.572;1.106;2024-03-08T02:25:58;98905.56;;;2.81;100.00
74960;BME280;63518;49.572;1.106;2024-03-08T02:28:25;98915.72;;;3.23;100.00
74960;BME280;63518;49.572;1.106;2024-03-08T02:30:52;98908.31;;;2.86;100.00
74960;BME280;63518;49.572;1.106;2024-03-08T02:33:25;98904.06;;;2.95;100.00
74960;BME280;63518;49.572;1.106;2024-03-08T02:35:53;98901.75;;;3.14;100.00
74960;BME280;63518;49.572;1.106;2024-03-08T02:38:21;98906.41;;;3.19;100.00
74960;BME280;63518;49.572;1.106;2024-03-08T02:40:50;98907.03;;;3.31;100.00
74960;BME280;63518;49.572;1.106;2024-03-08T02:43:18;98895.56;;;3.29;100.00
74960;BME280;63518;49.572;1.106;2024-03-08T02:45:45;98895.63;;;3.02;100.00
74960;BME280;63518;49.572;1.106;2024-03-08T02:48:14;98904.19;;;3.16;100.00
74960;BME280;63518;49.572;1.106;2024-03-08T02:50:41;98889.56;;;2.95;100.00
74960;BME280;63518;49.572;1.106;2024-03-08T02:53:12;98879.41;;;2.85;100.00
74960;BME280;63518;49.572;1.106;2024-03-08T02:55:40;98883.03;;;2.91;100.00
74960;BME280;63518;49.572;1.106;2024-03-08T02:58:08;98873.28;;;3.00;100.00
74960;BME280;63518;49.572;1.106;2024-03-08T03:00:38;98863.94;;;2.91;100.00
74960;BME280;63518;49.572;1.106;2024-03-08T03:03:07;98867.91;;;2.78;100.00
74960;BME280;63518;49.572;1.106;2024-03-08T03:05:34;98840.66;;;2.78;100.00
74960;BME280;63518;49.572;1.106;2024-03-08T03:08:02;98838.03;;;2.88;100.00
74960;BME280;63518;49.572;1.106;2024-03-08T03:10:30;98852.63;;;2.77;100.00
74960;BME280;63518;49.572;1.106;2024-03-08T03:12:57;98852.69;;;2.50;100.00
74960;BME280;63518;49.572;1.106;2024-03-08T03:15:24;98850.78;;;2.82;100.00
74960;BME280;63518;49.572;1.106;2024-03-08T03:17:53;98834.22;;;2.94;100.00
74960;BME280;63518;49.572;1.106;2024-03-08T03:20:21;98812.72;;;2.56;100.00
74960;BME280;63518;49.572;1.106;2024-03-08T03:22:53;98828.59;;;2.69;100.00
74960;BME280;63518;49.572;1.106;2024-03-08T03:25:21;98834.56;;;2.66;100.00
74960;BME280;63518;49.572;1.106;2024-03-08T03:27:52;98827.00;;;2.73;100.00
74960;BME280;63518;49.572;1.106;2024-03-08T03:30:19;98818.56;;;2.42;100.00
74960;BME280;63518;49.572;1.106;2024-03-08T03:32:48;98814.56;;;2.50;100.00
74960;BME280;63518;49.572;1.106;2024-03-08T03:35:18;98820.16;;;2.70;100.00
74960;BME280;63518;49.572;1.106;2024-03-08T03:37:47;98806.38;;;2.50;100.00
74960;BME280;63518;49.572;1.106;2024-03-08T03:40:34;98800.19;;;2.28;100.00
74960;BME280;63518;49.572;1.106;2024-03-08T03:43:01;98791.13;;;2.49;100.00
74960;BME280;63518;49.572;1.106;2024-03-08T03:45:29;98784.59;;;2.23;100.00
74960;BME280;63518;49.572;1.106;2024-03-08T03:48:01;98789.84;;;2.62;100.00
74960;BME280;63518;49.572;1.106;2024-03-08T03:50:29;98784.69;;;2.01;100.00
74960;BME280;63518;49.572;1.106;2024-03-08T03:52:56;98777.53;;;2.54;100.00
74960;BME280;63518;49.572;1.106;2024-03-08T03:55:23;98779.34;;;2.43;100.00
74960;BME280;63518;49.572;1.106;2024-03-08T03:57:50;98766.91;;;2.52;100.00
74960;BME280;63518;49.572;1.106;2024-03-08T04:00:16;98766.22;;;2.35;100.00
74960;BME280;63518;49.572;1.106;2024-03-08T04:02:44;98758.22;;;2.56;100.00
74960;BME280;63518;49.572;1.106;2024-03-08T04:05:11;98759.63;;;2.31;100.00
74960;BME280;63518;49.572;1.106;2024-03-08T04:07:38;98769.19;;;2.71;100.00
74960;BME280;63518;49.572;1.106;2024-03-08T04:10:06;98768.72;;;2.42;100.00
74960;BME280;63518;49.572;1.106;2024-03-08T04:12:35;98762.84;;;1.96;100.00
74960;BME280;63518;49.572;1.106;2024-03-08T04:15:02;98760.09;;;2.18;100.00
74960;BME280;63518;49.572;1.106;2024-03-08T04:17:29;98767.84;;;2.36;100.00
74960;BME280;63518;49.572;1.106;2024-03-08T04:19:56;98766.22;;;2.35;100.00
74960;BME280;63518;49.572;1.106;2024-03-08T04:22:23;98744.34;;;2.25;100.00
74960;BME280;63518;49.572;1.106;2024-03-08T04:24:50;98749.72;;;2.52;100.00
74960;BME280;63518;49.572;1.106;2024-03-08T04:27:17;98761.84;;;2.34;100.00
74960;BME280;63518;49.572;1.106;2024-03-08T04:29:44;98754.31;;;2.14;100.00
74960;BME280;63518;49.572;1.106;2024-03-08T04:32:10;98753.94;;;2.33;100.00
74960;BME280;63518;49.572;1.106;2024-03-08T04:34:39;98756.91;;;2.31;100.00
74960;BME280;63518;49.572;1.106;2024-03-08T04:37:11;98757.78;;;2.37;100.00
74960;BME280;63518;49.572;1.106;2024-03-08T04:39:40;98778.13;;;2.24;100.00
74960;BME280;63518;49.572;1.106;2024-03-08T04:42:07;98778.13;;;2.24;100.00
74960;BME280;63518;49.572;1.106;2024-03-08T04:44:37;98778.88;;;2.51;100.00
74960;BME280;63518;49.572;1.106;2024-03-08T04:47:06;98771.31;;;2.26;100.00
74960;BME280;63518;49.572;1.106;2024-03-08T04:49:33;98767.09;;;2.14;100.00
74960;BME280;63518;49.572;1.106;2024-03-08T04:52:04;98776.00;;;2.04;100.00
74960;BME280;63518;49.572;1.106;2024-03-08T04:54:31;98783.50;;;2.19;100.00
74960;BME280;63518;49.572;1.106;2024-03-08T04:56:58;98775.41;;;2.29;100.00
74960;BME280;63518;49.572;1.106;2024-03-08T04:59:27;98776.75;;;1.99;100.00
74960;BME280;63518;49.572;1.106;2024-03-08T05:01:54;98764.50;;;2.24;100.00
74960;BME280;63518;49.572;1.106;2024-03-08T05:04:21;98774.94;;;2.37;100.00
74960;BME280;63518;49.572;1.106;2024-03-08T05:06:48;98773.63;;;2.13;100.00
74960;BME280;63518;49.572;1.106;2024-03-08T05:09:15;98768.59;;;2.26;100.00
74960;BME280;63518;49.572;1.106;2024-03-08T05:11:43;98774.66;;;2.07;100.00
74960;BME280;63518;49.572;1.106;2024-03-08T05:14:11;98757.31;;;2.13;100.00
74960;BME280;63518;49.572;1.106;2024-03-08T05:16:44;98753.25;;;1.88;100.00
74960;BME280;63518;49.572;1.106;2024-03-08T05:19:16;98737.75;;;1.89;100.00
74960;BME280;63518;49.572;1.106;2024-03-08T05:21:47;98737.34;;;1.75;100.00
74960;BME280;63518;49.572;1.106;2024-03-08T05:24:15;98717.91;;;1.61;100.00
74960;BME280;63518;49.572;1.106;2024-03-08T05:26:46;98718.19;;;1.65;100.00
74960;BME280;63518;49.572;1.106;2024-03-08T05:29:13;98709.72;;;1.88;100.00
74960;BME280;63518;49.572;1.106;2024-03-08T05:31:49;98722.78;;;1.86;100.00
74960;BME280;63518;49.572;1.106;2024-03-08T05:34:16;98726.34;;;1.65;100.00
74960;BME280;63518;49.572;1.106;2024-03-08T05:36:43;98714.47;;;1.76;100.00
74960;BME280;63518;49.572;1.106;2024-03-08T05:39:14;98718.75;;;1.67;100.00
74960;BME280;63518;49.572;1.106;2024-03-08T05:41:42;98734.75;;;1.90;100.00
74960;BME280;63518;49.572;1.106;2024-03-08T05:44:08;98726.44;;;1.75;100.00
74960;BME280;63518;49.572;1.106;2024-03-08T05:46:36;98709.19;;;1.91;100.00
74960;BME280;63518;49.572;1.106;2024-03-08T05:49:03;98714.34;;;1.61;100.00
74960;BME280;63518;49.572;1.106;2024-03-08T05:51:33;98710.22;;;1.58;100.00
74960;BME280;63518;49.572;1.106;2024-03-08T05:54:09;98709.97;;;1.87;100.00
74960;BME280;63518;49.572;1.106;2024-03-08T05:56:43;98703.50;;;1.66;100.00
74960;BME280;63518;49.572;1.106;2024-03-08T05:59:12;98725.63;;;2.02;100.00
74960;BME280;63518;49.572;1.106;2024-03-08T06:01:39;98709.38;;;1.80;100.00
74960;BME280;63518;49.572;1.106;2024-03-08T06:04:09;98695.25;;;1.56;100.00
74960;BME280;63518;49.572;1.106;2024-03-08T06:06:37;98699.69;;;1.67;100.00
74960;BME280;63518;49.572;1.106;2024-03-08T06:09:07;98698.16;;;1.76;100.00
74960;BME280;63518;49.572;1.106;2024-03-08T06:11:43;98697.34;;;1.76;100.00
74960;BME280;63518;49.572;1.106;2024-03-08T06:14:10;98694.59;;;1.70;100.00
74960;BME280;63518;49.572;1.106;2024-03-08T06:16:37;98697.47;;;1.86;100.00
74960;BME280;63518;49.572;1.106;2024-03-08T06:19:04;98704.69;;;1.75;100.00
74960;BME280;63518;49.572;1.106;2024-03-08T06:21:32;98705.66;;;1.64;100.00
74960;BME280;63518;49.572;1.106;2024-03-08T06:23:59;98706.63;;;1.80;100.00
74960;BME280;63518;49.572;1.106;2024-03-08T06:26:26;98700.59;;;1.73;100.00
74960;BME280;63518;49.572;1.106;2024-03-08T06:28:57;98707.41;;;1.75;100.00
74960;BME280;63518;49.572;1.106;2024-03-08T06:31:24;98696.31;;;1.82;100.00
74960;BME280;63518;49.572;1.106;2024-03-08T06:33:51;98678.66;;;1.57;100.00
74960;BME280;63518;49.572;1.106;2024-03-08T06:36:21;98681.63;;;1.29;100.00
74960;BME280;63518;49.572;1.106;2024-03-08T06:38:51;98671.06;;;1.59;100.00
74960;BME280;63518;49.572;1.106;2024-03-08T06:41:18;98691.53;;;1.67;100.00
74960;BME280;63518;49.572;1.106;2024-03-08T06:43:45;98691.19;;;1.85;100.00
74960;BME280;63518;49.572;1.106;2024-03-08T06:46:15;98688.69;;;1.79;100.00
74960;BME280;63518;49.572;1.106;2024-03-08T06:48:41;98687.69;;;1.90;100.00
74960;BME280;63518;49.572;1.106;2024-03-08T06:51:08;98689.03;;;1.87;100.00
74960;BME280;63518;49.572;1.106;2024-03-08T06:53:37;98686.16;;;1.72;100.00
74960;BME280;63518;49.572;1.106;2024-03-08T06:56:05;98674.75;;;1.75;100.00
74960;BME280;63518;49.572;1.106;2024-03-08T06:58:34;98670.63;;;1.99;100.00
74960;BME280;63518;49.572;1.106;2024-03-08T07:01:01;98673.59;;;1.98;100.00
74960;BME280;63518;49.572;1.106;2024-03-08T07:03:30;98654.88;;;2.02;100.00
74960;BME280;63518;49.572;1.106;2024-03-08T07:05:59;98661.81;;;1.87;100.00
74960;BME280;63518;49.572;1.106;2024-03-08T07:08:28;98677.25;;;2.14;100.00
74960;BME280;63518;49.572;1.106;2024-03-08T07:10:55;98661.47;;;2.11;100.00
74960;BME280;63518;49.572;1.106;2024-03-08T07:13:22;98667.41;;;2.40;100.00
74960;BME280;63518;49.572;1.106;2024-03-08T07:15:49;98669.28;;;2.39;100.00
74960;BME280;63518;49.572;1.106;2024-03-08T07:18:15;98670.84;;;2.30;100.00
74960;BME280;63518;49.572;1.106;2024-03-08T07:20:42;98668.50;;;2.44;100.00
74960;BME280;63518;49.572;1.106;2024-03-08T07:23:12;98667.22;;;2.57;100.00
74960;BME280;63518;49.572;1.106;2024-03-08T07:25:58;98674.81;;;2.49;100.00
74960;BME280;63518;49.572;1.106;2024-03-08T07:28:27;98648.56;;;2.33;100.00
74960;BME280;63518;49.572;1.106;2024-03-08T07:30:54;98662.34;;;2.59;100.00
74960;BME280;63518;49.572;1.106;2024-03-08T07:33:34;98661.19;;;3.07;100.00
74960;BME280;63518;49.572;1.106;2024-03-08T07:36:01;98650.47;;;2.33;100.00
74960;BME280;63518;49.572;1.106;2024-03-08T07:38:28;98646.38;;;2.35;100.00
74960;BME280;63518;49.572;1.106;2024-03-08T07:40:57;98647.38;;;2.66;100.00
74960;BME280;63518;49.572;1.106;2024-03-08T07:43:25;98638.94;;;2.68;100.00
74960;BME280;63518;49.572;1.106;2024-03-08T07:45:51;98636.06;;;2.90;100.00
74960;BME280;63518;49.572;1.106;2024-03-08T07:48:20;98650.66;;;3.31;100.00
74960;BME280;63518;49.572;1.106;2024-03-08T07:50:47;98645.94;;;3.06;100.00
74960;BME280;63518;49.572;1.106;2024-03-08T07:53:16;98654.78;;;2.76;100.00
74960;BME280;63518;49.572;1.106;2024-03-08T07:55:43;98649.38;;;2.86;100.00
74960;BME280;63518;49.572;1.106;2024-03-08T07:58:11;98648.34;;;3.02;100.00
74960;BME280;63518;49.572;1.106;2024-03-08T08:00:37;98642.19;;;3.32;100.00
74960;BME280;63518;49.572;1.106;2024-03-08T08:03:04;98640.00;;;3.34;100.00
74960;BME280;63518;49.572;1.106;2024-03-08T08:05:31;98632.06;;;3.18;100.00
74960;BME280;63518;49.572;1.106;2024-03-08T08:08:05;98633.69;;;3.19;100.00
74960;BME280;63518;49.572;1.106;2024-03-08T08:10:33;98628.91;;;3.51;100.00
74960;BME280;63518;49.572;1.106;2024-03-08T08:12:59;98625.00;;;3.27;100.00
74960;BME280;63518;49.572;1.106;2024-03-08T08:15:27;98631.63;;;3.46;100.00
74960;BME280;63518;49.572;1.106;2024-03-08T08:17:55;98625.88;;;3.58;100.00
74960;BME280;63518;49.572;1.106;2024-03-08T08:20:21;98618.19;;;3.29;100.00
74960;BME280;63518;49.572;1.106;2024-03-08T08:22:49;98609.00;;;3.71;100.00
74960;BME280;63518;49.572;1.106;2024-03-08T08:25:16;98601.63;;;3.72;100.00
74960;BME280;63518;49.572;1.106;2024-03-08T08:27:47;98602.16;;;3.89;100.00
74960;BME280;63518;49.572;1.106;2024-03-08T08:30:14;98597.78;;;4.13;100.00
74960;BME280;63518;49.572;1.106;2024-03-08T08:32:40;98605.91;;;4.44;100.00
74960;BME280;63518;49.572;1.106;2024-03-08T08:35:09;98599.97;;;4.11;100.00
74960;BME280;63518;49.572;1.106;2024-03-08T08:37:39;98593.88;;;4.45;100.00
74960;BME280;63518;49.572;1.106;2024-03-08T08:40:07;98601.09;;;4.95;100.00
74960;BME280;63518;49.572;1.106;2024-03-08T08:42:41;98592.19;;;4.69;100.00
74960;BME280;63518;49.572;1.106;2024-03-08T08:45:09;98557.16;;;4.76;100.00
74960;BME280;63518;49.572;1.106;2024-03-08T08:47:46;98583.75;;;5.15;100.00
74960;BME280;63518;49.572;1.106;2024-03-08T08:50:14;98555.16;;;4.92;100.00
74960;BME280;63518;49.572;1.106;2024-03-08T08:52:41;98582.25;;;4.89;100.00
74960;BME280;63518;49.572;1.106;2024-03-08T08:55:10;98577.78;;;5.52;100.00
74960;BME280;63518;49.572;1.106;2024-03-08T08:57:41;98555.19;;;5.37;100.00
74960;BME280;63518;49.572;1.106;2024-03-08T09:00:08;98556.38;;;5.20;100.00
74960;BME280;63518;49.572;1.106;2024-03-08T09:02:38;98563.56;;;5.89;100.00
74960;BME280;63518;49.572;1.106;2024-03-08T09:05:05;98567.31;;;5.20;100.00
74960;BME280;63518;49.572;1.106;2024-03-08T09:07:34;98559.94;;;5.21;100.00
74960;BME280;63518;49.572;1.106;2024-03-08T09:10:01;98558.72;;;5.37;100.00
74960;BME280;63518;49.572;1.106;2024-03-08T09:12:43;98542.47;;;5.56;100.00
74960;BME280;63518;49.572;1.106;2024-03-08T09:15:10;98522.50;;;5.50;100.00
74960;BME280;63518;49.572;1.106;2024-03-08T09:17:40;98531.34;;;5.71;100.00
74960;BME280;63518;49.572;1.106;2024-03-08T09:20:08;98532.59;;;6.18;100.00
74960;BME280;63518;49.572;1.106;2024-03-08T09:22:35;98527.13;;;6.42;100.00
74960;BME280;63518;49.572;1.106;2024-03-08T09:25:02;98527.75;;;7.00;100.00
74960;BME280;63518;49.572;1.106;2024-03-08T09:27:32;98495.97;;;6.57;100.00
74960;BME280;63518;49.572;1.106;2024-03-08T09:30:00;98507.94;;;7.04;100.00
74960;BME280;63518;49.572;1.106;2024-03-08T09:32:27;98500.59;;;6.80;100.00
74960;BME280;63518;49.572;1.106;2024-03-08T09:34:54;98489.09;;;7.35;100.00
74960;BME280;63518;49.572;1.106;2024-03-08T09:37:22;98497.63;;;7.33;100.00
74960;BME280;63518;49.572;1.106;2024-03-08T09:39:49;98475.25;;;7.77;100.00
74960;BME280;63518;49.572;1.106;2024-03-08T09:42:16;98457.66;;;6.89;100.00
74960;BME280;63518;49.572;1.106;2024-03-08T09:44:46;98471.78;;;6.83;100.00
74960;BME280;63518;49.572;1.106;2024-03-08T09:47:13;98491.16;;;7.94;100.00
74960;BME280;63518;49.572;1.106;2024-03-08T09:49:41;98458.75;;;7.77;100.00
74960;BME280;63518;49.572;1.106;2024-03-08T09:52:08;98476.44;;;7.52;100.00
74960;BME280;63518;49.572;1.106;2024-03-08T09:54:35;98477.53;;;7.19;100.00
74960;BME280;63518;49.572;1.106;2024-03-08T09:57:04;98466.94;;;7.12;100.00
74960;BME280;63518;49.572;1.106;2024-03-08T09:59:30;98463.69;;;7.62;100.00
74960;BME280;63518;49.572;1.106;2024-03-08T10:02:03;98455.13;;;8.51;100.00
74960;BME280;63518;49.572;1.106;2024-03-08T10:04:31;98465.31;;;8.50;100.00
74960;BME280;63518;49.572;1.106;2024-03-08T10:07:00;98469.47;;;8.48;100.00
74960;BME280;63518;49.572;1.106;2024-03-08T10:09:28;98454.91;;;7.60;100.00
74960;BME280;63518;49.572;1.106;2024-03-08T10:11:58;98462.88;;;8.99;100.00
74960;BME280;63518;49.572;1.106;2024-03-08T10:14:25;98457.50;;;9.52;100.00
74960;BME280;63518;49.572;1.106;2024-03-08T10:16:53;98450.59;;;9.63;100.00
74960;BME280;63518;49.572;1.106;2024-03-08T10:19:20;98464.00;;;9.34;100.00
74960;BME280;63518;49.572;1.106;2024-03-08T10:21:50;98445.84;;;10.17;100.00
74960;BME280;63518;49.572;1.106;2024-03-08T10:24:20;98446.72;;;9.95;100.00
74960;BME280;63518;49.572;1.106;2024-03-08T10:26:46;98443.63;;;10.36;100.00
74960;BME280;63518;49.572;1.106;2024-03-08T10:29:14;98455.03;;;10.52;100.00
74960;BME280;63518;49.572;1.106;2024-03-08T10:31:44;98447.38;;;10.32;100.00
74960;BME280;63518;49.572;1.106;2024-03-08T10:34:13;98445.97;;;10.12;100.00
74960;BME280;63518;49.572;1.106;2024-03-08T10:36:40;98427.53;;;10.70;100.00
74960;BME280;63518;49.572;1.106;2024-03-08T10:39:21;98441.44;;;10.56;100.00
74960;BME280;63518;49.572;1.106;2024-03-08T10:42:02;98423.41;;;10.01;100.00
74960;BME280;63518;49.572;1.106;2024-03-08T10:49:55;98406.03;;;10.49;100.00
74960;BME280;63518;49.572;1.106;2024-03-08T10:52:31;98406.91;;;10.76;100.00
74960;BME280;63518;49.572;1.106;2024-03-08T10:54:59;98396.94;;;11.61;100.00
74960;BME280;63518;49.572;1.106;2024-03-08T10:57:26;98400.34;;;9.97;100.00
74960;BME280;63518;49.572;1.106;2024-03-08T10:59:54;98395.53;;;11.29;100.00
74960;BME280;63518;49.572;1.106;2024-03-08T11:02:25;98391.78;;;11.51;100.00
74960;BME280;63518;49.572;1.106;2024-03-08T11:04:54;98388.91;;;10.87;100.00
74960;BME280;63518;49.572;1.106;2024-03-08T11:07:24;98379.16;;;10.89;100.00
74960;BME280;63518;49.572;1.106;2024-03-08T11:09:55;98357.63;;;12.02;100.00
74960;BME280;63518;49.572;1.106;2024-03-08T11:12:28;98367.47;;;12.21;100.00
74960;BME280;63518;49.572;1.106;2024-03-08T11:14:59;98366.41;;;12.05;100.00
74960;BME280;63518;49.572;1.106;2024-03-08T11:17:40;98362.50;;;11.59;100.00
74960;BME280;63518;49.572;1.106;2024-03-08T11:20:18;98354.56;;;12.54;100.00
74960;BME280;63518;49.572;1.106;2024-03-08T11:22:55;98355.59;;;11.01;100.00
74960;BME280;63518;49.572;1.106;2024-03-08T11:28:22;98351.34;;;10.51;100.00
74960;BME280;63518;49.572;1.106;2024-03-08T11:33:29;98339.38;;;12.81;100.00
74960;BME280;63518;49.572;1.106;2024-03-08T11:38:49;98338.00;;;12.46;100.00
74960;BME280;63518;49.572;1.106;2024-03-08T11:41:23;98306.44;;;11.96;100.00
74960;BME280;63518;49.572;1.106;2024-03-08T11:44:03;98330.47;;;12.76;100.00
74960;BME280;63518;49.572;1.106;2024-03-08T11:46:33;98327.59;;;13.05;100.00
74960;BME280;63518;49.572;1.106;2024-03-08T11:49:00;98321.66;;;12.32;100.00
74960;BME280;63518;49.572;1.106;2024-03-08T11:51:27;98316.50;;;13.26;100.00
74960;BME280;63518;49.572;1.106;2024-03-08T11:53:54;98316.28;;;12.98;100.00
74960;BME280;63518;49.572;1.106;2024-03-08T11:56:21;98308.13;;;13.59;100.00
74960;BME280;63518;49.572;1.106;2024-03-08T11:58:57;98299.00;;;13.13;100.00
74960;BME280;63518;49.572;1.106;2024-03-08T12:01:24;98270.22;;;13.39;100.00
74960;BME280;63518;49.572;1.106;2024-03-08T12:03:55;98297.19;;;14.36;100.00
74960;BME280;63518;49.572;1.106;2024-03-08T12:06:26;98302.63;;;14.20;100.00
74960;BME280;63518;49.572;1.106;2024-03-08T12:08:53;98298.25;;;13.95;100.00
74960;BME280;63518;49.572;1.106;2024-03-08T12:11:20;98279.69;;;11.62;100.00
74960;BME280;63518;49.572;1.106;2024-03-08T12:13:49;98286.44;;;13.86;100.00
74960;BME280;63518;49.572;1.106;2024-03-08T12:16:18;98287.94;;;13.71;100.00
74960;BME280;63518;49.572;1.106;2024-03-08T12:18:45;98282.59;;;13.41;100.00
74960;BME280;63518;49.572;1.106;2024-03-08T12:21:12;98280.44;;;13.72;100.00
74960;BME280;63518;49.572;1.106;2024-03-08T12:23:46;98271.84;;;14.78;100.00
74960;BME280;63518;49.572;1.106;2024-03-08T12:26:24;98273.16;;;14.68;100.00
74960;BME280;63518;49.572;1.106;2024-03-08T12:28:52;98269.59;;;14.96;100.00
74960;BME280;63518;49.572;1.106;2024-03-08T12:31:21;98252.69;;;13.59;100.00
74960;BME280;63518;49.572;1.106;2024-03-08T12:33:54;98270.00;;;14.30;100.00
74960;BME280;63518;49.572;1.106;2024-03-08T12:36:25;98264.03;;;13.79;100.00
74960;BME280;63518;49.572;1.106;2024-03-08T12:38:53;98260.28;;;14.76;100.00
74960;BME280;63518;49.572;1.106;2024-03-08T12:41:23;98252.91;;;13.66;100.00
74960;BME280;63518;49.572;1.106;2024-03-08T12:43:50;98245.47;;;15.00;100.00
74960;BME280;63518;49.572;1.106;2024-03-08T12:46:18;98245.75;;;15.11;100.00
74960;BME280;63518;49.572;1.106;2024-03-08T12:48:56;98236.59;;;14.66;100.00
74960;BME280;63518;49.572;1.106;2024-03-08T12:51:23;98236.31;;;15.27;100.00
74960;BME280;63518;49.572;1.106;2024-03-08T12:53:50;98234.44;;;15.19;100.00
74960;BME280;63518;49.572;1.106;2024-03-08T12:56:30;98226.81;;;14.44;100.00
74960;BME280;63518;49.572;1.106;2024-03-08T12:58:59;98221.28;;;13.10;100.00
74960;BME280;63518;49.572;1.106;2024-03-08T13:01:27;98216.56;;;12.02;100.00
74960;BME280;63518;49.572;1.106;2024-03-08T13:03:54;98218.25;;;13.73;100.00
74960;BME280;63518;49.572;1.106;2024-03-08T13:06:22;98218.53;;;13.10;100.00
74960;BME280;63518;49.572;1.106;2024-03-08T13:08:51;98202.88;;;13.26;100.00
74960;BME280;63518;49.572;1.106;2024-03-08T13:11:22;98213.34;;;14.18;100.00
74960;BME280;63518;49.572;1.106;2024-03-08T13:13:51;98207.50;;;13.59;100.00
74960;BME280;63518;49.572;1.106;2024-03-08T13:16:19;98215.88;;;13.13;100.00
74960;BME280;63518;49.572;1.106;2024-03-08T13:18:46;98207.47;;;12.77;100.00